sensor_id;sensor_type;location;lat;lon;timestamp;P1;durP1;ratioP1;P2;durP2;ratioP2
39654;SDS011;25336;59.944;11.010;2022-12-29T00:01:52;7.55;;;3.75;;
39654;SDS011;25336;59.944;11.010;2022-12-29T00:04:18;3.97;;;3.58;;
39654;SDS011;25336;59.944;11.010;2022-12-29T00:06:43;8.07;;;3.67;;
39654;SDS011;25336;59.944;11.010;2022-12-29T00:09:12;6.72;;;3.80;;
39654;SDS011;25336;59.944;11.010;2022-12-29T00:11:38;3.70;;;2.80;;
39654;SDS011;25336;59.944;11.010;2022-12-29T00:14:05;4.38;;;3.05;;
39654;SDS011;25336;59.944;11.010;2022-12-29T00:16:51;6.20;;;3.40;;
39654;SDS011;25336;59.944;11.010;2022-12-29T00:19:17;6.65;;;3.85;;
39654;SDS011;25336;59.944;11.010;2022-12-29T00:22:01;4.93;;;3.03;;
39654;SDS011;25336;59.944;11.010;2022-12-29T00:24:46;8.00;;;3.35;;
39654;SDS011;25336;59.944;11.010;2022-12-29T00:27:29;5.43;;;2.90;;
39654;SDS011;25336;59.944;11.010;2022-12-29T00:30:18;6.38;;;3.45;;
39654;SDS011;25336;59.944;11.010;2022-12-29T00:33:15;5.80;;;3.38;;
39654;SDS011;25336;59.944;11.010;2022-12-29T00:36:43;5.45;;;4.22;;
39654;SDS011;25336;59.944;11.010;2022-12-29T00:38:59;7.65;;;3.42;;
39654;SDS011;25336;59.944;11.010;2022-12-29T00:41:46;6.07;;;2.95;;
39654;SDS011;25336;59.944;11.010;2022-12-29T00:44:31;4.53;;;2.97;;
39654;SDS011;25336;59.944;11.010;2022-12-29T00:46:57;4.35;;;3.10;;
39654;SDS011;25336;59.944;11.010;2022-12-29T00:49:27;3.92;;;3.05;;
39654;SDS011;25336;59.944;11.010;2022-12-29T00:51:55;4.47;;;3.58;;
39654;SDS011;25336;59.944;11.010;2022-12-29T00:54:22;3.42;;;2.78;;
39654;SDS011;25336;59.944;11.010;2022-12-29T00:56:49;8.52;;;2.97;;
39654;SDS011;25336;59.944;11.010;2022-12-29T00:59:16;5.13;;;3.20;;
39654;SDS011;25336;59.944;11.010;2022-12-29T01:01:42;4.22;;;2.90;;
39654;SDS011;25336;59.944;11.010;2022-12-29T01:04:08;4.32;;;3.22;;
39654;SDS011;25336;59.944;11.010;2022-12-29T01:06:35;5.18;;;2.97;;
39654;SDS011;25336;59.944;11.010;2022-12-29T01:09:02;4.15;;;3.05;;
39654;SDS011;25336;59.944;11.010;2022-12-29T01:11:47;4.20;;;3.28;;
39654;SDS011;25336;59.944;11.010;2022-12-29T01:14:13;6.20;;;3.97;;
39654;SDS011;25336;59.944;11.010;2022-12-29T01:16:39;5.60;;;3.85;;
39654;SDS011;25336;59.944;11.010;2022-12-29T01:19:04;7.13;;;3.38;;
39654;SDS011;25336;59.944;11.010;2022-12-29T01:21:30;5.40;;;3.75;;
39654;SDS011;25336;59.944;11.010;2022-12-29T01:23:55;8.30;;;3.63;;
39654;SDS011;25336;59.944;11.010;2022-12-29T01:26:21;5.70;;;3.65;;
39654;SDS011;25336;59.944;11.010;2022-12-29T01:28:47;8.93;;;3.75;;
39654;SDS011;25336;59.944;11.010;2022-12-29T01:31:13;3.70;;;3.00;;
39654;SDS011;25336;59.944;11.010;2022-12-29T01:33:40;4.60;;;2.90;;
39654;SDS011;25336;59.944;11.010;2022-12-29T01:36:07;3.72;;;2.75;;
39654;SDS011;25336;59.944;11.010;2022-12-29T01:38:35;3.63;;;2.75;;
39654;SDS011;25336;59.944;11.010;2022-12-29T01:41:02;3.92;;;3.10;;
39654;SDS011;25336;59.944;11.010;2022-12-29T01:43:41;3.90;;;2.83;;
39654;SDS011;25336;59.944;11.010;2022-12-29T01:46:19;3.47;;;2.83;;
39654;SDS011;25336;59.944;11.010;2022-12-29T01:48:58;3.20;;;2.85;;
39654;SDS011;25336;59.944;11.010;2022-12-29T01:51:54;5.32;;;3.03;;
39654;SDS011;25336;59.944;11.010;2022-12-29T01:54:28;4.40;;;3.00;;
39654;SDS011;25336;59.944;11.010;2022-12-29T01:56:59;3.40;;;2.30;;
39654;SDS011;25336;59.944;11.010;2022-12-29T01:59:27;6.68;;;3.50;;
39654;SDS011;25336;59.944;11.010;2022-12-29T02:01:58;6.05;;;2.55;;
39654;SDS011;25336;59.944;11.010;2022-12-29T02:04:24;3.30;;;2.72;;
39654;SDS011;25336;59.944;11.010;2022-12-29T02:06:53;4.03;;;3.03;;
39654;SDS011;25336;59.944;11.010;2022-12-29T02:09:22;4.78;;;2.38;;
39654;SDS011;25336;59.944;11.010;2022-12-29T02:11:48;5.55;;;2.00;;
39654;SDS011;25336;59.944;11.010;2022-12-29T02:14:14;3.42;;;2.47;;
39654;SDS011;25336;59.944;11.010;2022-12-29T02:22:19;5.55;;;2.33;;
39654;SDS011;25336;59.944;11.010;2022-12-29T02:30:38;7.85;;;2.92;;
39654;SDS011;25336;59.944;11.010;2022-12-29T02:33:34;3.58;;;2.42;;
39654;SDS011;25336;59.944;11.010;2022-12-29T02:36:08;4.60;;;2.38;;
39654;SDS011;25336;59.944;11.010;2022-12-29T02:38:55;2.85;;;2.00;;
39654;SDS011;25336;59.944;11.010;2022-12-29T02:44:23;3.03;;;1.90;;
39654;SDS011;25336;59.944;11.010;2022-12-29T02:46:53;3.83;;;2.20;;
39654;SDS011;25336;59.944;11.010;2022-12-29T02:49:36;4.97;;;3.33;;
39654;SDS011;25336;59.944;11.010;2022-12-29T02:52:23;4.85;;;2.63;;
39654;SDS011;25336;59.944;11.010;2022-12-29T02:54:55;3.42;;;2.33;;
39654;SDS011;25336;59.944;11.010;2022-12-29T02:59:46;4.88;;;1.90;;
39654;SDS011;25336;59.944;11.010;2022-12-29T03:10:15;2.47;;;1.88;;
39654;SDS011;25336;59.944;11.010;2022-12-29T03:16:07;4.18;;;1.85;;
39654;SDS011;25336;59.944;11.010;2022-12-29T03:19:04;2.22;;;1.80;;
39654;SDS011;25336;59.944;11.010;2022-12-29T03:21:39;3.50;;;1.80;;
39654;SDS011;25336;59.944;11.010;2022-12-29T03:24:36;2.47;;;1.60;;
39654;SDS011;25336;59.944;11.010;2022-12-29T03:27:08;4.32;;;2.25;;
39654;SDS011;25336;59.944;11.010;2022-12-29T03:29:41;2.10;;;1.88;;
39654;SDS011;25336;59.944;11.010;2022-12-29T03:32:11;1.98;;;1.60;;
39654;SDS011;25336;59.944;11.010;2022-12-29T03:34:39;3.60;;;1.90;;
39654;SDS011;25336;59.944;11.010;2022-12-29T03:37:08;3.47;;;1.92;;
39654;SDS011;25336;59.944;11.010;2022-12-29T03:39:37;2.30;;;1.95;;
39654;SDS011;25336;59.944;11.010;2022-12-29T03:42:04;2.45;;;1.63;;
39654;SDS011;25336;59.944;11.010;2022-12-29T03:44:35;2.08;;;1.85;;
39654;SDS011;25336;59.944;11.010;2022-12-29T03:47:04;4.53;;;1.83;;
39654;SDS011;25336;59.944;11.010;2022-12-29T03:49:30;1.88;;;1.67;;
39654;SDS011;25336;59.944;11.010;2022-12-29T03:51:56;2.92;;;1.90;;
39654;SDS011;25336;59.944;11.010;2022-12-29T03:54:21;3.00;;;1.92;;
39654;SDS011;25336;59.944;11.010;2022-12-29T03:56:47;3.75;;;1.50;;
39654;SDS011;25336;59.944;11.010;2022-12-29T03:59:12;1.45;;;1.35;;
39654;SDS011;25336;59.944;11.010;2022-12-29T04:01:38;2.00;;;1.60;;
39654;SDS011;25336;59.944;11.010;2022-12-29T04:04:03;1.52;;;1.40;;
39654;SDS011;25336;59.944;11.010;2022-12-29T04:06:29;1.70;;;1.35;;
39654;SDS011;25336;59.944;11.010;2022-12-29T04:08:55;3.38;;;1.80;;
39654;SDS011;25336;59.944;11.010;2022-12-29T04:11:21;2.15;;;1.48;;
39654;SDS011;25336;59.944;11.010;2022-12-29T04:13:47;1.65;;;1.40;;
39654;SDS011;25336;59.944;11.010;2022-12-29T04:16:13;1.48;;;1.30;;
39654;SDS011;25336;59.944;11.010;2022-12-29T04:18:39;2.42;;;1.52;;
39654;SDS011;25336;59.944;11.010;2022-12-29T04:21:04;3.25;;;1.50;;
39654;SDS011;25336;59.944;11.010;2022-12-29T04:23:31;1.83;;;1.42;;
39654;SDS011;25336;59.944;11.010;2022-12-29T04:25:59;1.42;;;1.30;;
39654;SDS011;25336;59.944;11.010;2022-12-29T04:28:24;2.97;;;1.33;;
39654;SDS011;25336;59.944;11.010;2022-12-29T04:30:50;8.10;;;1.90;;
39654;SDS011;25336;59.944;11.010;2022-12-29T04:33:16;3.75;;;1.60;;
39654;SDS011;25336;59.944;11.010;2022-12-29T04:35:42;1.70;;;1.60;;
39654;SDS011;25336;59.944;11.010;2022-12-29T04:38:08;1.90;;;1.60;;
39654;SDS011;25336;59.944;11.010;2022-12-29T04:40:34;5.78;;;1.40;;
39654;SDS011;25336;59.944;11.010;2022-12-29T04:42:59;2.45;;;1.60;;
39654;SDS011;25336;59.944;11.010;2022-12-29T04:45:25;1.58;;;1.48;;
39654;SDS011;25336;59.944;11.010;2022-12-29T04:47:51;2.17;;;1.80;;
39654;SDS011;25336;59.944;11.010;2022-12-29T04:50:16;1.80;;;1.10;;
39654;SDS011;25336;59.944;11.010;2022-12-29T04:52:42;2.10;;;1.60;;
39654;SDS011;25336;59.944;11.010;2022-12-29T04:55:08;1.20;;;1.10;;
39654;SDS011;25336;59.944;11.010;2022-12-29T04:57:33;3.58;;;1.35;;
39654;SDS011;25336;59.944;11.010;2022-12-29T04:59:59;3.83;;;1.67;;
39654;SDS011;25336;59.944;11.010;2022-12-29T05:02:25;1.52;;;1.42;;
39654;SDS011;25336;59.944;11.010;2022-12-29T05:04:50;2.28;;;1.30;;
39654;SDS011;25336;59.944;11.010;2022-12-29T05:07:16;1.83;;;1.45;;
39654;SDS011;25336;59.944;11.010;2022-12-29T05:09:42;4.88;;;1.45;;
39654;SDS011;25336;59.944;11.010;2022-12-29T05:12:07;2.40;;;1.60;;
39654;SDS011;25336;59.944;11.010;2022-12-29T05:14:33;1.17;;;1.17;;
39654;SDS011;25336;59.944;11.010;2022-12-29T05:16:58;1.17;;;1.17;;
39654;SDS011;25336;59.944;11.010;2022-12-29T05:19:24;1.27;;;1.17;;
39654;SDS011;25336;59.944;11.010;2022-12-29T05:21:49;4.55;;;1.40;;
39654;SDS011;25336;59.944;11.010;2022-12-29T05:24:15;2.65;;;1.30;;
39654;SDS011;25336;59.944;11.010;2022-12-29T05:26:41;2.85;;;1.13;;
39654;SDS011;25336;59.944;11.010;2022-12-29T05:29:06;2.90;;;1.35;;
39654;SDS011;25336;59.944;11.010;2022-12-29T05:31:32;8.25;;;1.30;;
39654;SDS011;25336;59.944;11.010;2022-12-29T05:34:00;2.28;;;1.20;;
39654;SDS011;25336;59.944;11.010;2022-12-29T05:36:28;2.28;;;1.20;;
39654;SDS011;25336;59.944;11.010;2022-12-29T05:38:53;1.13;;;1.02;;
39654;SDS011;25336;59.944;11.010;2022-12-29T05:41:19;1.63;;;1.00;;
39654;SDS011;25336;59.944;11.010;2022-12-29T05:43:44;1.90;;;1.27;;
39654;SDS011;25336;59.944;11.010;2022-12-29T05:46:10;1.52;;;1.00;;
39654;SDS011;25336;59.944;11.010;2022-12-29T05:48:36;2.25;;;1.13;;
39654;SDS011;25336;59.944;11.010;2022-12-29T05:51:01;1.10;;;1.02;;
39654;SDS011;25336;59.944;11.010;2022-12-29T05:53:27;1.38;;;1.10;;
39654;SDS011;25336;59.944;11.010;2022-12-29T05:55:52;1.50;;;1.40;;
39654;SDS011;25336;59.944;11.010;2022-12-29T05:58:18;1.10;;;1.10;;
39654;SDS011;25336;59.944;11.010;2022-12-29T06:00:44;1.40;;;1.30;;
39654;SDS011;25336;59.944;11.010;2022-12-29T06:03:10;1.70;;;1.58;;
39654;SDS011;25336;59.944;11.010;2022-12-29T06:05:35;2.22;;;1.60;;
39654;SDS011;25336;59.944;11.010;2022-12-29T06:08:01;1.50;;;1.40;;
39654;SDS011;25336;59.944;11.010;2022-12-29T06:10:26;1.92;;;1.30;;
39654;SDS011;25336;59.944;11.010;2022-12-29T06:12:52;1.80;;;1.42;;
39654;SDS011;25336;59.944;11.010;2022-12-29T06:15:17;1.65;;;1.42;;
39654;SDS011;25336;59.944;11.010;2022-12-29T06:17:43;1.50;;;1.40;;
39654;SDS011;25336;59.944;11.010;2022-12-29T06:20:09;1.30;;;1.20;;
39654;SDS011;25336;59.944;11.010;2022-12-29T06:22:35;3.78;;;1.58;;
39654;SDS011;25336;59.944;11.010;2022-12-29T06:25:01;2.17;;;1.48;;
39654;SDS011;25336;59.944;11.010;2022-12-29T06:27:27;2.35;;;1.80;;
39654;SDS011;25336;59.944;11.010;2022-12-29T06:29:53;1.70;;;1.40;;
39654;SDS011;25336;59.944;11.010;2022-12-29T06:32:19;1.70;;;1.40;;
39654;SDS011;25336;59.944;11.010;2022-12-29T06:34:44;2.00;;;1.33;;
39654;SDS011;25336;59.944;11.010;2022-12-29T06:37:10;1.65;;;1.30;;
39654;SDS011;25336;59.944;11.010;2022-12-29T06:39:36;1.70;;;1.48;;
39654;SDS011;25336;59.944;11.010;2022-12-29T06:42:01;1.63;;;1.50;;
39654;SDS011;25336;59.944;11.010;2022-12-29T06:44:27;2.70;;;1.70;;
39654;SDS011;25336;59.944;11.010;2022-12-29T06:46:53;2.28;;;1.40;;
39654;SDS011;25336;59.944;11.010;2022-12-29T06:49:19;2.42;;;1.77;;
39654;SDS011;25336;59.944;11.010;2022-12-29T06:51:45;1.90;;;1.75;;
39654;SDS011;25336;59.944;11.010;2022-12-29T06:54:11;2.92;;;1.67;;
39654;SDS011;25336;59.944;11.010;2022-12-29T06:56:36;1.83;;;1.58;;
39654;SDS011;25336;59.944;11.010;2022-12-29T06:59:02;3.25;;;1.10;;
39654;SDS011;25336;59.944;11.010;2022-12-29T07:01:28;1.40;;;1.30;;
39654;SDS011;25336;59.944;11.010;2022-12-29T07:03:53;2.10;;;1.65;;
39654;SDS011;25336;59.944;11.010;2022-12-29T07:06:19;1.42;;;1.33;;
39654;SDS011;25336;59.944;11.010;2022-12-29T07:08:45;1.75;;;1.23;;
39654;SDS011;25336;59.944;11.010;2022-12-29T07:11:10;1.40;;;1.30;;
39654;SDS011;25336;59.944;11.010;2022-12-29T07:13:36;1.58;;;1.48;;
39654;SDS011;25336;59.944;11.010;2022-12-29T07:16:08;2.90;;;1.60;;
39654;SDS011;25336;59.944;11.010;2022-12-29T07:18:35;3.22;;;2.25;;
39654;SDS011;25336;59.944;11.010;2022-12-29T07:21:01;1.80;;;1.55;;
39654;SDS011;25336;59.944;11.010;2022-12-29T07:23:27;2.28;;;1.90;;
39654;SDS011;25336;59.944;11.010;2022-12-29T07:26:02;2.55;;;2.33;;
39654;SDS011;25336;59.944;11.010;2022-12-29T07:28:33;3.63;;;2.47;;
39654;SDS011;25336;59.944;11.010;2022-12-29T07:31:00;4.90;;;2.83;;
39654;SDS011;25336;59.944;11.010;2022-12-29T07:33:27;2.40;;;2.05;;
39654;SDS011;25336;59.944;11.010;2022-12-29T07:35:54;1.95;;;1.70;;
39654;SDS011;25336;59.944;11.010;2022-12-29T07:38:19;1.75;;;1.65;;
39654;SDS011;25336;59.944;11.010;2022-12-29T07:40:45;1.70;;;1.60;;
39654;SDS011;25336;59.944;11.010;2022-12-29T07:43:11;3.65;;;2.55;;
39654;SDS011;25336;59.944;11.010;2022-12-29T07:45:36;2.33;;;1.50;;
39654;SDS011;25336;59.944;11.010;2022-12-29T07:48:02;1.88;;;1.77;;
39654;SDS011;25336;59.944;11.010;2022-12-29T07:50:30;1.88;;;1.70;;
39654;SDS011;25336;59.944;11.010;2022-12-29T07:52:56;4.20;;;1.60;;
39654;SDS011;25336;59.944;11.010;2022-12-29T07:55:21;1.55;;;1.45;;
39654;SDS011;25336;59.944;11.010;2022-12-29T07:57:47;1.90;;;1.60;;
39654;SDS011;25336;59.944;11.010;2022-12-29T08:00:13;2.83;;;1.67;;
39654;SDS011;25336;59.944;11.010;2022-12-29T08:02:39;1.95;;;1.85;;
39654;SDS011;25336;59.944;11.010;2022-12-29T08:05:04;2.03;;;1.50;;
39654;SDS011;25336;59.944;11.010;2022-12-29T08:07:30;1.70;;;1.60;;
39654;SDS011;25336;59.944;11.010;2022-12-29T08:09:56;1.63;;;1.40;;
39654;SDS011;25336;59.944;11.010;2022-12-29T08:12:22;1.63;;;1.52;;
39654;SDS011;25336;59.944;11.010;2022-12-29T08:14:47;2.33;;;1.58;;
39654;SDS011;25336;59.944;11.010;2022-12-29T08:17:13;1.75;;;1.65;;
39654;SDS011;25336;59.944;11.010;2022-12-29T08:19:38;1.52;;;1.40;;
39654;SDS011;25336;59.944;11.010;2022-12-29T08:22:04;1.90;;;1.45;;
39654;SDS011;25336;59.944;11.010;2022-12-29T08:24:30;1.90;;;1.60;;
39654;SDS011;25336;59.944;11.010;2022-12-29T08:26:56;2.53;;;2.17;;
39654;SDS011;25336;59.944;11.010;2022-12-29T08:29:21;2.03;;;1.85;;
39654;SDS011;25336;59.944;11.010;2022-12-29T08:31:47;1.83;;;1.70;;
39654;SDS011;25336;59.944;11.010;2022-12-29T08:34:13;2.90;;;1.40;;
39654;SDS011;25336;59.944;11.010;2022-12-29T08:36:38;1.95;;;1.73;;
39654;SDS011;25336;59.944;11.010;2022-12-29T08:39:04;1.83;;;1.40;;
39654;SDS011;25336;59.944;11.010;2022-12-29T08:41:29;1.67;;;1.58;;
39654;SDS011;25336;59.944;11.010;2022-12-29T08:43:55;1.73;;;1.58;;
39654;SDS011;25336;59.944;11.010;2022-12-29T08:46:21;1.42;;;1.33;;
39654;SDS011;25336;59.944;11.010;2022-12-29T08:48:47;2.72;;;1.70;;
39654;SDS011;25336;59.944;11.010;2022-12-29T08:51:13;1.75;;;1.65;;
39654;SDS011;25336;59.944;11.010;2022-12-29T08:53:38;1.60;;;1.40;;
39654;SDS011;25336;59.944;11.010;2022-12-29T08:56:04;1.95;;;1.83;;
39654;SDS011;25336;59.944;11.010;2022-12-29T08:58:30;4.03;;;1.95;;
39654;SDS011;25336;59.944;11.010;2022-12-29T09:00:58;1.88;;;1.52;;
39654;SDS011;25336;59.944;11.010;2022-12-29T09:03:24;4.20;;;2.30;;
39654;SDS011;25336;59.944;11.010;2022-12-29T09:05:50;3.80;;;3.50;;
39654;SDS011;25336;59.944;11.010;2022-12-29T09:08:17;2.67;;;2.13;;
39654;SDS011;25336;59.944;11.010;2022-12-29T09:10:43;5.88;;;3.92;;
39654;SDS011;25336;59.944;11.010;2022-12-29T09:13:11;7.05;;;4.85;;
39654;SDS011;25336;59.944;11.010;2022-12-29T09:15:37;8.40;;;4.90;;
39654;SDS011;25336;59.944;11.010;2022-12-29T09:18:03;10.95;;;5.95;;
39654;SDS011;25336;59.944;11.010;2022-12-29T09:20:29;9.55;;;5.10;;
39654;SDS011;25336;59.944;11.010;2022-12-29T09:22:55;15.50;;;7.05;;
39654;SDS011;25336;59.944;11.010;2022-12-29T09:25:20;16.27;;;8.43;;
39654;SDS011;25336;59.944;11.010;2022-12-29T09:27:49;7.22;;;4.00;;
39654;SDS011;25336;59.944;11.010;2022-12-29T09:30:17;3.97;;;2.75;;
39654;SDS011;25336;59.944;11.010;2022-12-29T09:32:44;2.22;;;2.03;;
39654;SDS011;25336;59.944;11.010;2022-12-29T09:35:09;2.42;;;2.10;;
39654;SDS011;25336;59.944;11.010;2022-12-29T09:37:35;1.80;;;1.50;;
39654;SDS011;25336;59.944;11.010;2022-12-29T09:40:01;1.63;;;1.52;;
39654;SDS011;25336;59.944;11.010;2022-12-29T09:42:38;2.03;;;1.83;;
39654;SDS011;25336;59.944;11.010;2022-12-29T09:45:28;1.90;;;1.75;;
39654;SDS011;25336;59.944;11.010;2022-12-29T09:47:58;1.60;;;1.50;;
39654;SDS011;25336;59.944;11.010;2022-12-29T09:50:33;1.48;;;1.38;;
39654;SDS011;25336;59.944;11.010;2022-12-29T09:55:45;1.80;;;1.65;;
39654;SDS011;25336;59.944;11.010;2022-12-29T10:03:50;3.13;;;1.80;;
39654;SDS011;25336;59.944;11.010;2022-12-29T10:16:25;5.75;;;3.72;;
39654;SDS011;25336;59.944;11.010;2022-12-29T10:19:12;4.72;;;3.00;;
39654;SDS011;25336;59.944;11.010;2022-12-29T10:24:44;4.60;;;3.90;;
39654;SDS011;25336;59.944;11.010;2022-12-29T10:27:14;6.65;;;5.90;;
39654;SDS011;25336;59.944;11.010;2022-12-29T10:29:45;4.00;;;3.60;;
39654;SDS011;25336;59.944;11.010;2022-12-29T10:32:24;2.70;;;2.50;;
39654;SDS011;25336;59.944;11.010;2022-12-29T10:35:03;2.60;;;2.38;;
39654;SDS011;25336;59.944;11.010;2022-12-29T10:40:12;3.20;;;3.00;;
39654;SDS011;25336;59.944;11.010;2022-12-29T10:43:00;4.43;;;3.13;;
39654;SDS011;25336;59.944;11.010;2022-12-29T10:45:31;2.80;;;2.60;;
39654;SDS011;25336;59.944;11.010;2022-12-29T10:48:19;6.28;;;4.93;;
39654;SDS011;25336;59.944;11.010;2022-12-29T10:50:47;6.10;;;4.70;;
39654;SDS011;25336;59.944;11.010;2022-12-29T10:53:19;7.03;;;6.32;;
39654;SDS011;25336;59.944;11.010;2022-12-29T10:55:48;8.00;;;4.43;;
39654;SDS011;25336;59.944;11.010;2022-12-29T10:58:15;11.18;;;6.47;;
39654;SDS011;25336;59.944;11.010;2022-12-29T11:00:41;9.00;;;4.93;;
39654;SDS011;25336;59.944;11.010;2022-12-29T11:03:20;4.30;;;3.45;;
39654;SDS011;25336;59.944;11.010;2022-12-29T11:06:15;4.05;;;2.67;;
39654;SDS011;25336;59.944;11.010;2022-12-29T11:09:09;6.28;;;5.35;;
39654;SDS011;25336;59.944;11.010;2022-12-29T11:11:39;8.57;;;7.18;;
39654;SDS011;25336;59.944;11.010;2022-12-29T11:14:12;8.85;;;5.57;;
39654;SDS011;25336;59.944;11.010;2022-12-29T11:16:56;5.87;;;3.50;;
39654;SDS011;25336;59.944;11.010;2022-12-29T11:19:26;4.13;;;2.60;;
39654;SDS011;25336;59.944;11.010;2022-12-29T11:21:56;3.53;;;2.90;;
39654;SDS011;25336;59.944;11.010;2022-12-29T11:24:47;3.05;;;2.80;;
39654;SDS011;25336;59.944;11.010;2022-12-29T11:27:18;3.40;;;2.90;;
39654;SDS011;25336;59.944;11.010;2022-12-29T11:29:48;3.70;;;3.40;;
39654;SDS011;25336;59.944;11.010;2022-12-29T11:32:22;4.60;;;4.05;;
39654;SDS011;25336;59.944;11.010;2022-12-29T11:34:52;8.90;;;7.13;;
39654;SDS011;25336;59.944;11.010;2022-12-29T11:37:36;6.45;;;5.57;;
39654;SDS011;25336;59.944;11.010;2022-12-29T11:40:15;4.40;;;2.80;;
39654;SDS011;25336;59.944;11.010;2022-12-29T11:42:47;6.13;;;3.85;;
39654;SDS011;25336;59.944;11.010;2022-12-29T11:45:19;6.78;;;6.10;;
39654;SDS011;25336;59.944;11.010;2022-12-29T11:47:58;5.72;;;4.30;;
39654;SDS011;25336;59.944;11.010;2022-12-29T11:50:27;5.68;;;5.07;;
39654;SDS011;25336;59.944;11.010;2022-12-29T11:53:00;4.80;;;3.95;;
39654;SDS011;25336;59.944;11.010;2022-12-29T11:55:29;6.68;;;5.50;;
39654;SDS011;25336;59.944;11.010;2022-12-29T11:57:55;10.82;;;7.20;;
39654;SDS011;25336;59.944;11.010;2022-12-29T12:00:24;17.30;;;9.45;;
39654;SDS011;25336;59.944;11.010;2022-12-29T12:02:57;8.30;;;5.68;;
39654;SDS011;25336;59.944;11.010;2022-12-29T12:10:37;7.32;;;5.47;;
39654;SDS011;25336;59.944;11.010;2022-12-29T12:16:04;4.20;;;3.53;;
39654;SDS011;25336;59.944;11.010;2022-12-29T12:18:39;11.23;;;7.35;;
39654;SDS011;25336;59.944;11.010;2022-12-29T12:26:58;16.88;;;10.43;;
39654;SDS011;25336;59.944;11.010;2022-12-29T12:29:43;7.95;;;6.22;;
39654;SDS011;25336;59.944;11.010;2022-12-29T12:34:46;15.27;;;9.52;;
39654;SDS011;25336;59.944;11.010;2022-12-29T12:42:48;18.05;;;10.80;;
39654;SDS011;25336;59.944;11.010;2022-12-29T12:48:06;8.13;;;5.55;;
39654;SDS011;25336;59.944;11.010;2022-12-29T12:51:02;8.68;;;6.22;;
39654;SDS011;25336;59.944;11.010;2022-12-29T12:53:47;13.30;;;7.20;;
39654;SDS011;25336;59.944;11.010;2022-12-29T12:56:27;30.48;;;18.35;;
39654;SDS011;25336;59.944;11.010;2022-12-29T12:59:11;38.60;;;24.60;;
39654;SDS011;25336;59.944;11.010;2022-12-29T13:01:56;19.90;;;12.88;;
39654;SDS011;25336;59.944;11.010;2022-12-29T13:07:53;29.65;;;15.95;;
39654;SDS011;25336;59.944;11.010;2022-12-29T13:16:23;27.08;;;13.77;;
39654;SDS011;25336;59.944;11.010;2022-12-29T13:24:31;16.77;;;10.90;;
39654;SDS011;25336;59.944;11.010;2022-12-29T13:30:16;16.90;;;8.85;;
39654;SDS011;25336;59.944;11.010;2022-12-29T13:32:49;30.42;;;10.68;;
39654;SDS011;25336;59.944;11.010;2022-12-29T13:35:30;19.23;;;9.80;;
39654;SDS011;25336;59.944;11.010;2022-12-29T13:38:14;18.63;;;10.85;;
39654;SDS011;25336;59.944;11.010;2022-12-29T13:40:47;22.40;;;14.57;;
39654;SDS011;25336;59.944;11.010;2022-12-29T13:43:16;20.02;;;12.35;;
39654;SDS011;25336;59.944;11.010;2022-12-29T13:45:44;16.60;;;10.93;;
39654;SDS011;25336;59.944;11.010;2022-12-29T13:48:21;23.50;;;12.68;;
39654;SDS011;25336;59.944;11.010;2022-12-29T13:50:54;25.25;;;15.20;;
39654;SDS011;25336;59.944;11.010;2022-12-29T13:53:25;30.02;;;14.30;;
39654;SDS011;25336;59.944;11.010;2022-12-29T13:56:33;15.93;;;10.57;;
39654;SDS011;25336;59.944;11.010;2022-12-29T14:04:25;13.10;;;9.52;;
39654;SDS011;25336;59.944;11.010;2022-12-29T14:07:03;15.57;;;9.98;;
39654;SDS011;25336;59.944;11.010;2022-12-29T14:12:21;13.50;;;10.43;;
39654;SDS011;25336;59.944;11.010;2022-12-29T14:14:53;20.75;;;13.25;;
39654;SDS011;25336;59.944;11.010;2022-12-29T14:17:26;15.00;;;9.25;;
39654;SDS011;25336;59.944;11.010;2022-12-29T14:19:52;11.48;;;8.82;;
39654;SDS011;25336;59.944;11.010;2022-12-29T14:22:22;60.15;;;29.63;;
39654;SDS011;25336;59.944;11.010;2022-12-29T14:24:52;28.10;;;17.20;;
39654;SDS011;25336;59.944;11.010;2022-12-29T14:29:47;32.60;;;17.92;;
39654;SDS011;25336;59.944;11.010;2022-12-29T14:34:51;28.00;;;17.08;;
39654;SDS011;25336;59.944;11.010;2022-12-29T14:37:22;22.67;;;14.07;;
39654;SDS011;25336;59.944;11.010;2022-12-29T14:40:05;36.25;;;22.83;;
39654;SDS011;25336;59.944;11.010;2022-12-29T14:42:40;29.92;;;19.23;;
39654;SDS011;25336;59.944;11.010;2022-12-29T14:47:41;19.63;;;14.05;;
39654;SDS011;25336;59.944;11.010;2022-12-29T14:52:51;23.40;;;17.02;;
39654;SDS011;25336;59.944;11.010;2022-12-29T15:00:56;9.95;;;3.38;;
39654;SDS011;25336;59.944;11.010;2022-12-29T15:03:23;5.15;;;2.90;;
39654;SDS011;25336;59.944;11.010;2022-12-29T15:05:57;8.95;;;3.38;;
39654;SDS011;25336;59.944;11.010;2022-12-29T15:08:33;8.90;;;2.80;;
39654;SDS011;25336;59.944;11.010;2022-12-29T15:11:06;5.60;;;2.10;;
39654;SDS011;25336;59.944;11.010;2022-12-29T15:13:43;7.90;;;2.63;;
39654;SDS011;25336;59.944;11.010;2022-12-29T15:16:24;10.32;;;2.58;;
39654;SDS011;25336;59.944;11.010;2022-12-29T15:18:53;12.77;;;3.85;;
39654;SDS011;25336;59.944;11.010;2022-12-29T15:21:21;9.32;;;2.60;;
39654;SDS011;25336;59.944;11.010;2022-12-29T15:23:56;7.50;;;3.00;;
39654;SDS011;25336;59.944;11.010;2022-12-29T15:26:22;8.80;;;3.25;;
39654;SDS011;25336;59.944;11.010;2022-12-29T15:28:49;18.50;;;3.47;;
39654;SDS011;25336;59.944;11.010;2022-12-29T15:33:48;9.57;;;3.28;;
39654;SDS011;25336;59.944;11.010;2022-12-29T15:36:23;8.27;;;3.08;;
39654;SDS011;25336;59.944;11.010;2022-12-29T15:38:51;12.38;;;2.92;;
39654;SDS011;25336;59.944;11.010;2022-12-29T15:43:53;15.20;;;3.35;;
39654;SDS011;25336;59.944;11.010;2022-12-29T15:46:24;12.30;;;3.75;;
39654;SDS011;25336;59.944;11.010;2022-12-29T15:48:50;15.10;;;4.10;;
39654;SDS011;25336;59.944;11.010;2022-12-29T15:51:20;9.80;;;3.67;;
39654;SDS011;25336;59.944;11.010;2022-12-29T15:53:50;18.25;;;3.70;;
39654;SDS011;25336;59.944;11.010;2022-12-29T15:56:16;17.02;;;3.75;;
39654;SDS011;25336;59.944;11.010;2022-12-29T15:58:47;16.80;;;4.43;;
39654;SDS011;25336;59.944;11.010;2022-12-29T16:04:00;21.15;;;5.45;;
39654;SDS011;25336;59.944;11.010;2022-12-29T16:06:34;18.00;;;4.18;;
39654;SDS011;25336;59.944;11.010;2022-12-29T16:09:10;21.52;;;4.55;;
39654;SDS011;25336;59.944;11.010;2022-12-29T16:11:44;20.85;;;4.85;;
39654;SDS011;25336;59.944;11.010;2022-12-29T16:14:19;14.35;;;3.58;;
39654;SDS011;25336;59.944;11.010;2022-12-29T16:16:50;14.25;;;4.32;;
39654;SDS011;25336;59.944;11.010;2022-12-29T16:19:21;18.33;;;4.05;;
39654;SDS011;25336;59.944;11.010;2022-12-29T16:21:53;11.98;;;3.72;;
39654;SDS011;25336;59.944;11.010;2022-12-29T16:24:20;24.50;;;4.53;;
39654;SDS011;25336;59.944;11.010;2022-12-29T16:27:00;15.30;;;4.47;;
39654;SDS011;25336;59.944;11.010;2022-12-29T16:29:31;14.75;;;3.90;;
39654;SDS011;25336;59.944;11.010;2022-12-29T16:31:58;8.98;;;3.25;;
39654;SDS011;25336;59.944;11.010;2022-12-29T16:34:34;12.73;;;3.60;;
39654;SDS011;25336;59.944;11.010;2022-12-29T16:47:34;18.52;;;3.30;;
39654;SDS011;25336;59.944;11.010;2022-12-29T16:50:09;13.48;;;3.15;;
39654;SDS011;25336;59.944;11.010;2022-12-29T16:52:38;13.13;;;3.50;;
39654;SDS011;25336;59.944;11.010;2022-12-29T16:55:04;12.32;;;3.03;;
39654;SDS011;25336;59.944;11.010;2022-12-29T16:57:33;10.77;;;3.22;;
39654;SDS011;25336;59.944;11.010;2022-12-29T17:00:04;17.98;;;4.53;;
39654;SDS011;25336;59.944;11.010;2022-12-29T17:02:32;13.30;;;3.05;;
39654;SDS011;25336;59.944;11.010;2022-12-29T17:05:12;11.45;;;3.15;;
39654;SDS011;25336;59.944;11.010;2022-12-29T17:07:38;11.27;;;2.85;;